createdAt,value
2023-04-03T00:01:11.475Z,4.45
2023-04-03T00:03:14.122Z,5.18
2023-04-03T00:05:16.901Z,5.05
2023-04-03T00:07:19.589Z,5.90
2023-04-03T00:09:22.267Z,4.55
2023-04-03T00:11:25.006Z,5.03
2023-04-03T00:13:27.696Z,4.63
2023-04-03T00:15:30.550Z,5.63
2023-04-03T00:17:33.268Z,4.25
2023-04-03T00:19:36.361Z,5.00
2023-04-03T00:21:39.729Z,4.97
2023-04-03T00:23:42.622Z,4.80
2023-04-03T00:25:45.721Z,4.75
2023-04-03T00:27:48.537Z,4.07
2023-04-03T00:29:51.230Z,3.90
2023-04-03T00:31:53.849Z,4.90
2023-04-03T00:33:56.725Z,4.07
2023-04-03T00:35:59.518Z,4.25
2023-04-03T00:38:02.330Z,4.15
2023-04-03T00:40:06.429Z,4.22
2023-04-03T00:42:08.958Z,4.10
2023-04-03T00:44:29.952Z,4.97
2023-04-03T00:46:32.544Z,3.63
2023-04-03T00:48:38.121Z,4.68
2023-04-03T00:50:42.758Z,4.22
2023-04-03T00:52:47.796Z,3.92
2023-04-03T00:54:53.434Z,4.18
2023-04-03T00:56:58.627Z,4.28
2023-04-03T00:59:31.475Z,4.07
2023-04-03T01:01:34.281Z,4.82
2023-04-03T01:03:37.484Z,4.45
2023-04-03T01:05:42.059Z,6.25
2023-04-03T01:07:46.228Z,4.10
2023-04-03T01:09:51.793Z,4.32
2023-04-03T01:11:54.498Z,4.97
2023-04-03T01:13:57.299Z,4.78
2023-04-03T01:16:05.082Z,4.55
2023-04-03T01:18:11.556Z,4.13
2023-04-03T01:20:32.501Z,4.38
2023-04-03T01:22:55.683Z,4.03
2023-04-03T01:24:58.276Z,4.00
2023-04-03T01:27:04.001Z,4.57
2023-04-03T01:29:06.784Z,4.28
2023-04-03T01:31:24.492Z,4.82
2023-04-03T01:33:27.601Z,3.70
2023-04-03T01:35:30.230Z,6.00
2023-04-03T01:37:32.895Z,6.65
2023-04-03T01:39:35.768Z,4.88
2023-04-03T01:41:38.573Z,4.45
2023-04-03T01:43:41.264Z,4.78
2023-04-03T01:45:44.292Z,4.45
2023-04-03T01:47:47.091Z,4.22
2023-04-03T01:49:49.675Z,4.85
2023-04-03T01:51:52.315Z,4.50
2023-04-03T01:53:55.045Z,4.97
2023-04-03T01:55:57.701Z,5.13
2023-04-03T01:58:00.498Z,5.15
2023-04-03T02:00:03.374Z,4.88
2023-04-03T02:02:07.074Z,4.45
2023-04-03T02:04:09.913Z,3.80
2023-04-03T02:06:12.991Z,4.65
2023-04-03T02:08:15.925Z,3.83
2023-04-03T02:10:18.654Z,4.38
2023-04-03T02:12:21.323Z,4.18
2023-04-03T02:14:24.847Z,4.20
2023-04-03T02:16:47.328Z,4.70
2023-04-03T02:18:49.996Z,4.90
2023-04-03T02:20:52.645Z,4.53
2023-04-03T02:22:55.232Z,4.30
2023-04-03T02:24:58.020Z,4.47
2023-04-03T02:27:00.860Z,4.38
2023-04-03T02:29:03.957Z,3.95
2023-04-03T02:31:09.416Z,4.03
2023-04-03T02:33:12.225Z,4.90
2023-04-03T02:35:15.001Z,5.05
2023-04-03T02:37:17.796Z,4.25
2023-04-03T02:39:20.486Z,4.20
2023-04-03T02:41:23.250Z,4.63
2023-04-03T02:43:25.971Z,4.22
2023-04-03T02:45:28.554Z,4.70
2023-04-03T02:47:31.253Z,5.13
2023-04-03T02:49:33.906Z,4.25
2023-04-03T02:51:36.686Z,3.80
2023-04-03T02:53:39.323Z,4.22
2023-04-03T02:55:42.028Z,5.38
2023-04-03T02:57:44.745Z,3.97
2023-04-03T02:59:47.402Z,4.30
2023-04-03T03:01:50.140Z,5.50
2023-04-03T03:03:52.765Z,4.40
2023-04-03T03:06:06.580Z,4.15
2023-04-03T03:08:09.267Z,4.32
2023-04-03T03:10:11.966Z,4.03
2023-04-03T03:12:15.865Z,4.45
2023-04-03T03:14:18.623Z,3.97
2023-04-03T03:16:21.486Z,4.45
2023-04-03T03:18:24.554Z,3.65
2023-04-03T03:20:27.201Z,4.18
2023-04-03T03:22:31.811Z,3.97
2023-04-03T03:24:35.203Z,3.40
2023-04-03T03:26:38.596Z,4.10
2023-04-03T03:28:42.005Z,4.03
2023-04-03T03:30:45.176Z,4.35
2023-04-03T03:32:50.488Z,3.83
2023-04-03T03:34:53.301Z,3.85
2023-04-03T03:36:56.551Z,3.50
2023-04-03T03:38:59.125Z,4.10
2023-04-03T03:41:01.715Z,3.30
2023-04-03T03:43:04.802Z,3.30
2023-04-03T03:45:08.234Z,3.65
2023-04-03T03:47:11.949Z,3.60
2023-04-03T03:49:14.591Z,3.50
2023-04-03T03:51:17.853Z,3.72
2023-04-03T03:53:20.817Z,3.90
2023-04-03T03:55:23.585Z,3.70
2023-04-03T03:57:28.213Z,3.17
2023-04-03T03:59:31.171Z,3.53
2023-04-03T04:01:34.321Z,3.00
2023-04-03T04:03:37.163Z,2.55
2023-04-03T04:05:40.349Z,3.28
2023-04-03T04:07:43.205Z,3.15
2023-04-03T04:09:46.147Z,3.08
2023-04-03T04:11:48.873Z,2.90
2023-04-03T04:13:51.485Z,3.15
2023-04-03T04:15:54.162Z,2.92
2023-04-03T04:17:56.936Z,2.25
2023-04-03T04:19:59.668Z,2.80
2023-04-03T04:22:02.228Z,2.97
2023-04-03T04:24:05.114Z,2.50
2023-04-03T04:26:07.687Z,2.22
2023-04-03T04:28:10.516Z,2.70
2023-04-03T04:30:14.187Z,2.53
2023-04-03T04:32:16.847Z,2.15
2023-04-03T04:34:19.588Z,2.60
2023-04-03T04:36:22.563Z,3.78
2023-04-03T04:38:26.481Z,2.03
2023-04-03T04:40:29.250Z,2.55
2023-04-03T04:42:31.952Z,2.08
2023-04-03T04:44:34.713Z,2.58
2023-04-03T04:46:37.389Z,1.67
2023-04-03T04:48:40.123Z,2.20
2023-04-03T04:50:42.718Z,2.60
2023-04-03T04:52:45.359Z,2.20
2023-04-03T04:54:48.006Z,2.50
2023-04-03T04:56:50.674Z,2.83
2023-04-03T04:58:53.253Z,2.83
2023-04-03T05:01:03.484Z,1.95
2023-04-03T05:03:06.537Z,2.25
2023-04-03T05:05:10.157Z,2.35
2023-04-03T05:07:13.062Z,2.10
2023-04-03T05:09:15.974Z,2.50
2023-04-03T05:11:18.685Z,2.25
2023-04-03T05:13:21.942Z,1.90
2023-04-03T05:15:24.976Z,2.60
2023-04-03T05:17:27.618Z,2.28
2023-04-03T05:19:30.512Z,1.98
2023-04-03T05:21:33.726Z,2.05
2023-04-03T05:23:36.455Z,1.67
2023-04-03T05:25:40.102Z,1.52
2023-04-03T05:27:42.800Z,1.90
2023-04-03T05:29:45.619Z,2.85
2023-04-03T05:31:50.917Z,1.95
2023-04-03T05:33:53.617Z,2.17
2023-04-03T05:35:56.454Z,1.73
2023-04-03T05:37:59.321Z,1.90
2023-04-03T05:40:02.407Z,1.95
2023-04-03T05:42:06.241Z,2.10
2023-04-03T05:44:08.947Z,1.92
2023-04-03T05:46:17.717Z,1.55
2023-04-03T05:48:20.557Z,1.60
2023-04-03T05:50:23.522Z,1.55
2023-04-03T05:52:36.459Z,1.55
2023-04-03T05:54:39.233Z,1.25
2023-04-03T05:56:42.122Z,1.30
2023-04-03T05:58:46.297Z,1.40
2023-04-03T06:00:49.658Z,1.58
2023-04-03T06:02:52.428Z,1.88
2023-04-03T06:04:55.220Z,1.25
2023-04-03T06:06:59.157Z,1.92
2023-04-03T06:09:03.731Z,2.15
2023-04-03T06:11:06.956Z,1.23
2023-04-03T06:13:09.544Z,1.17
2023-04-03T06:15:12.946Z,1.27
2023-04-03T06:17:17.297Z,1.02
2023-04-03T06:19:20.066Z,1.27
2023-04-03T06:21:22.820Z,1.52
2023-04-03T06:23:25.728Z,1.95
2023-04-03T06:25:28.773Z,1.40
2023-04-03T06:27:31.500Z,1.02
2023-04-03T06:29:34.437Z,0.85
2023-04-03T06:31:40.904Z,1.27
2023-04-03T06:33:43.678Z,1.67
2023-04-03T06:35:46.886Z,1.98
2023-04-03T06:37:49.803Z,1.10
2023-04-03T06:39:52.468Z,1.25
2023-04-03T06:41:55.039Z,1.00
2023-04-03T06:43:59.149Z,1.48
2023-04-03T06:46:02.264Z,1.45
2023-04-03T06:48:05.253Z,0.98
2023-04-03T06:50:08.476Z,1.52
2023-04-03T06:52:13.269Z,2.45
2023-04-03T06:54:16.195Z,1.30
2023-04-03T06:56:19.213Z,1.73
2023-04-03T06:58:23.370Z,1.33
2023-04-03T07:00:27.223Z,0.98
2023-04-03T07:02:29.855Z,1.15
2023-04-03T07:04:32.758Z,1.55
2023-04-03T07:06:36.143Z,1.55
2023-04-03T07:08:39.327Z,0.88
2023-04-03T07:10:42.185Z,1.40
2023-04-03T07:12:45.099Z,1.35
2023-04-03T07:14:48.165Z,1.80
2023-04-03T07:16:50.867Z,1.63
2023-04-03T07:18:53.736Z,2.08
2023-04-03T07:20:56.970Z,1.52
2023-04-03T07:23:00.434Z,1.15
2023-04-03T07:25:04.691Z,1.08
2023-04-03T07:27:09.542Z,2.05
2023-04-03T07:29:12.385Z,1.30
2023-04-03T07:31:15.976Z,1.08
2023-04-03T07:33:20.927Z,2.20
2023-04-03T07:35:23.706Z,1.17
2023-04-03T07:37:26.388Z,1.40
2023-04-03T07:39:29.283Z,1.08
2023-04-03T07:41:32.286Z,1.60
2023-04-03T07:43:35.592Z,1.35
2023-04-03T07:45:38.451Z,1.70
2023-04-03T07:47:41.780Z,2.10
2023-04-03T07:49:44.995Z,1.33
2023-04-03T07:51:47.896Z,1.30
2023-04-03T07:53:50.509Z,1.88
2023-04-03T07:55:56.615Z,1.15
2023-04-03T07:57:59.339Z,1.35
2023-04-03T08:00:02.637Z,1.20
2023-04-03T08:02:07.036Z,1.92
2023-04-03T08:04:09.772Z,2.60
2023-04-03T08:06:16.207Z,1.02
2023-04-03T08:08:24.570Z,1.83
2023-04-03T08:10:27.431Z,1.48
2023-04-03T08:12:31.015Z,2.25
2023-04-03T08:14:35.866Z,1.65
2023-04-03T08:16:38.555Z,0.88
2023-04-03T08:18:41.276Z,1.38
2023-04-03T08:20:44.691Z,1.20
2023-04-03T08:22:47.569Z,1.05
2023-04-03T08:24:58.710Z,1.25
2023-04-03T08:27:02.393Z,1.30
2023-04-03T08:29:05.157Z,1.17
2023-04-03T08:31:12.216Z,1.85
2023-04-03T08:33:14.926Z,2.00
2023-04-03T08:35:17.771Z,0.93
2023-04-03T08:37:20.953Z,1.02
2023-04-03T08:39:23.606Z,1.50
2023-04-03T08:41:41.052Z,1.20
2023-04-03T08:44:26.254Z,1.38
2023-04-03T08:46:57.459Z,1.38
2023-04-03T08:49:01.308Z,1.02
2023-04-03T08:51:13.118Z,1.00
2023-04-03T08:55:56.646Z,1.20
2023-04-03T08:58:06.337Z,1.15
2023-04-03T09:00:23.647Z,1.30
2023-04-03T09:02:50.836Z,1.23
2023-04-03T09:04:54.534Z,1.40
2023-04-03T09:07:04.940Z,1.02
2023-04-03T09:09:29.264Z,1.08
2023-04-03T09:11:40.669Z,1.20
2023-04-03T09:14:02.312Z,1.63
2023-04-03T09:16:21.360Z,1.58
2023-04-03T09:18:34.072Z,1.50
2023-04-03T09:21:02.823Z,2.15
2023-04-03T09:23:37.782Z,0.88
2023-04-03T09:25:40.861Z,1.20
2023-04-03T09:27:43.770Z,1.23
2023-04-03T09:29:47.329Z,1.20
2023-04-03T09:31:54.367Z,0.77
2023-04-03T09:34:03.510Z,1.35
2023-04-03T09:36:07.111Z,1.05
2023-04-03T09:38:12.894Z,1.50
2023-04-03T09:40:27.562Z,1.10
2023-04-03T09:42:32.344Z,1.13
2023-04-03T09:44:38.062Z,1.48
2023-04-03T09:46:41.005Z,1.33
2023-04-03T09:51:17.088Z,1.25
2023-04-03T09:53:49.169Z,0.57
2023-04-03T09:55:51.911Z,1.27
2023-04-03T09:58:01.231Z,0.70
2023-04-03T10:00:06.856Z,1.00
2023-04-03T10:02:37.608Z,0.95
2023-04-03T10:04:42.992Z,1.15
2023-04-03T10:06:54.490Z,1.52
2023-04-03T10:09:02.230Z,1.25
2023-04-03T10:11:15.816Z,1.45
2023-04-03T10:13:22.517Z,1.45
2023-04-03T10:15:29.757Z,1.27
2023-04-03T10:17:56.718Z,0.80
2023-04-03T10:20:04.833Z,1.27
2023-04-03T10:22:21.892Z,0.60
2023-04-03T10:24:24.602Z,0.60
2023-04-03T10:26:39.108Z,0.85
2023-04-03T10:28:57.992Z,1.10
2023-04-03T10:31:03.642Z,1.00
2023-04-03T10:33:27.780Z,1.00
2023-04-03T10:35:41.027Z,2.35
2023-04-03T10:37:59.417Z,1.52
2023-04-03T10:40:32.417Z,2.33
2023-04-03T10:42:48.641Z,1.10
2023-04-03T10:45:06.643Z,0.63
2023-04-03T10:47:46.173Z,1.33
2023-04-03T10:50:16.800Z,2.15
2023-04-03T10:52:41.534Z,1.00
2023-04-03T10:55:08.764Z,1.25
2023-04-03T10:57:13.953Z,1.20
2023-04-03T10:59:17.533Z,1.13
2023-04-03T11:01:25.455Z,0.65
2023-04-03T11:03:37.103Z,1.42
2023-04-03T11:05:45.348Z,1.67
2023-04-03T11:07:53.058Z,1.02
2023-04-03T11:10:04.762Z,1.10
2023-04-03T11:12:42.303Z,0.85
2023-04-03T11:14:46.114Z,1.20
2023-04-03T11:16:54.949Z,1.00
2023-04-03T11:19:15.963Z,0.93
2023-04-03T11:21:46.990Z,1.33
2023-04-03T11:23:51.343Z,0.77
2023-04-03T11:25:57.968Z,1.73
2023-04-03T11:28:03.632Z,0.80
2023-04-03T11:30:11.588Z,1.00
2023-04-03T11:32:46.207Z,0.82
2023-04-03T11:34:51.914Z,0.60
2023-04-03T11:37:03.180Z,1.30
2023-04-03T11:39:22.510Z,1.23
2023-04-03T11:41:34.086Z,1.00
2023-04-03T11:45:54.905Z,0.60
2023-04-03T11:48:04.852Z,0.90
2023-04-03T11:50:43.692Z,1.05
2023-04-03T11:52:47.899Z,1.17
2023-04-03T11:54:50.872Z,0.98
2023-04-03T11:56:53.593Z,1.73
2023-04-03T11:59:14.818Z,1.13
2023-04-03T12:01:51.793Z,0.70
2023-04-03T12:03:59.655Z,0.70
2023-04-03T12:06:08.390Z,1.45
2023-04-03T12:08:25.816Z,1.50
2023-04-03T12:10:32.296Z,1.00
2023-04-03T12:12:37.298Z,1.15
2023-04-03T12:14:40.110Z,0.80
2023-04-03T12:16:42.745Z,0.95
2023-04-03T12:19:01.741Z,1.10
2023-04-03T12:21:06.116Z,1.15
2023-04-03T12:23:30.346Z,1.27
2023-04-03T12:25:51.220Z,1.13
2023-04-03T12:27:54.436Z,1.02
2023-04-03T12:30:05.878Z,1.20
2023-04-03T12:34:33.013Z,1.52
2023-04-03T12:36:42.183Z,1.27
2023-04-03T12:39:04.693Z,1.27
2023-04-03T12:41:19.130Z,1.13
2023-04-03T12:43:43.356Z,1.27
2023-04-03T12:46:03.228Z,1.48
2023-04-03T12:48:13.598Z,1.50
2023-04-03T12:50:35.119Z,1.15
2023-04-03T12:54:47.971Z,1.75
2023-04-03T12:56:51.716Z,0.90
2023-04-03T12:58:56.781Z,0.95
2023-04-03T13:01:13.354Z,2.08
2023-04-03T13:03:25.582Z,1.40
2023-04-03T13:05:29.567Z,1.25
2023-04-03T13:07:39.197Z,1.48
2023-04-03T13:09:42.100Z,1.60
2023-04-03T13:11:46.942Z,1.30
2023-04-03T13:14:00.981Z,1.48
2023-04-03T13:16:11.633Z,1.30
2023-04-03T13:18:27.218Z,1.63
2023-04-03T13:20:33.362Z,1.38
2023-04-03T13:22:45.850Z,1.08
2023-04-03T13:24:52.135Z,1.08
2023-04-03T13:26:55.030Z,1.13
2023-04-03T13:29:05.831Z,1.63
2023-04-03T13:31:15.482Z,1.30
2023-04-03T13:33:26.211Z,1.38
2023-04-03T13:35:34.027Z,1.43
2023-04-03T13:37:36.771Z,1.35
2023-04-03T13:39:40.448Z,1.63
2023-04-03T13:42:22.892Z,1.48
2023-04-03T13:44:34.355Z,1.02
2023-04-03T13:48:46.623Z,1.30
2023-04-03T13:51:02.877Z,1.20
2023-04-03T13:53:15.681Z,1.02
2023-04-03T13:55:48.398Z,1.58
2023-04-03T13:58:04.254Z,1.65
2023-04-03T14:00:34.747Z,1.40
2023-04-03T14:02:40.709Z,2.00
2023-04-03T14:04:46.089Z,1.17
2023-04-03T14:06:49.369Z,0.98
2023-04-03T14:08:53.104Z,0.77
2023-04-03T14:10:56.282Z,1.92
2023-04-03T14:12:58.965Z,1.52
2023-04-03T14:15:03.082Z,1.38
2023-04-03T14:17:24.531Z,1.45
2023-04-03T14:21:35.829Z,1.00
2023-04-03T14:23:38.976Z,1.70
2023-04-03T14:25:42.889Z,1.10
2023-04-03T14:27:50.820Z,1.05
2023-04-03T14:29:54.816Z,1.08
2023-04-03T14:32:11.554Z,1.15
2023-04-03T14:34:17.366Z,1.15
2023-04-03T14:36:24.520Z,1.23
2023-04-03T14:38:30.328Z,2.40
2023-04-03T14:40:32.982Z,1.02
2023-04-03T14:42:38.035Z,1.50
2023-04-03T14:44:40.716Z,1.70
2023-04-03T14:46:56.039Z,1.35
2023-04-03T14:49:00.074Z,1.42
2023-04-03T14:51:06.061Z,1.15
2023-04-03T14:53:09.249Z,1.20
2023-04-03T14:55:15.730Z,1.58
2023-04-03T14:57:19.029Z,1.25
2023-04-03T14:59:22.778Z,0.90
2023-04-03T15:01:27.038Z,3.15
2023-04-03T15:03:30.100Z,2.83
2023-04-03T15:05:32.834Z,1.75
2023-04-03T15:07:41.853Z,1.40
2023-04-03T15:09:44.712Z,1.67
2023-04-03T15:11:48.132Z,1.38
2023-04-03T15:13:50.922Z,1.90
2023-04-03T15:15:54.220Z,1.10
2023-04-03T15:18:01.254Z,2.28
2023-04-03T15:20:06.896Z,1.50
2023-04-03T15:22:16.316Z,2.03
2023-04-03T15:24:18.977Z,2.22
2023-04-03T15:26:21.937Z,1.90
2023-04-03T15:28:38.806Z,1.45
2023-04-03T15:30:41.744Z,1.40
2023-04-03T15:32:44.595Z,1.30
2023-04-03T15:34:47.254Z,1.63
2023-04-03T15:36:54.062Z,1.98
2023-04-03T15:38:56.936Z,3.03
2023-04-03T15:40:59.629Z,2.30
2023-04-03T15:43:02.483Z,2.10
2023-04-03T15:45:05.609Z,2.40
2023-04-03T15:47:08.468Z,2.10
2023-04-03T15:49:11.190Z,2.20
2023-04-03T15:51:13.814Z,1.73
2023-04-03T15:53:16.585Z,2.15
2023-04-03T15:55:19.369Z,2.47
2023-04-03T15:57:27.225Z,3.50
2023-04-03T15:59:31.928Z,1.58
2023-04-03T16:01:35.202Z,2.42
2023-04-03T16:03:40.117Z,2.15
2023-04-03T16:05:43.120Z,2.13
2023-04-03T16:07:47.058Z,1.80
2023-04-03T16:09:49.783Z,2.38
2023-04-03T16:11:52.684Z,1.58
2023-04-03T16:13:56.343Z,1.88
2023-04-03T16:15:59.047Z,1.92
2023-04-03T16:18:02.482Z,3.92
2023-04-03T16:20:06.694Z,3.67
2023-04-03T16:22:09.300Z,3.35
2023-04-03T16:24:12.099Z,3.60
2023-04-03T16:26:15.456Z,3.35
2023-04-03T16:28:19.349Z,3.33
2023-04-03T16:30:22.287Z,2.65
2023-04-03T16:32:27.975Z,2.72
2023-04-03T16:34:33.366Z,1.90
2023-04-03T16:36:36.192Z,3.03
2023-04-03T16:38:38.896Z,2.25
2023-04-03T16:40:41.653Z,2.72
2023-04-03T16:42:44.390Z,3.92
2023-04-03T16:44:47.081Z,2.33
2023-04-03T16:46:49.889Z,2.33
2023-04-03T16:48:52.706Z,2.95
2023-04-03T16:50:55.476Z,3.03
2023-04-03T16:52:58.319Z,3.03
2023-04-03T16:55:00.988Z,2.83
2023-04-03T16:57:04.165Z,2.50
2023-04-03T16:59:07.388Z,3.03
2023-04-03T17:01:14.666Z,4.20
2023-04-03T17:03:17.519Z,3.00
2023-04-03T17:05:20.234Z,2.33
2023-04-03T17:07:24.680Z,3.88
2023-04-03T17:09:27.489Z,3.47
2023-04-03T17:11:31.440Z,2.22
2023-04-03T17:13:34.950Z,2.65
2023-04-03T17:15:37.955Z,3.53
2023-04-03T17:17:41.366Z,2.47
2023-04-03T17:19:44.865Z,2.15
2023-04-03T17:21:47.758Z,2.80
2023-04-03T17:23:55.166Z,2.90
2023-04-03T17:25:58.016Z,3.08
2023-04-03T17:28:01.161Z,2.88
2023-04-03T17:30:06.804Z,3.25
2023-04-03T17:32:09.663Z,2.60
2023-04-03T17:34:12.964Z,2.78
2023-04-03T17:36:16.133Z,2.53
2023-04-03T17:38:19.005Z,2.75
2023-04-03T17:40:21.718Z,3.08
2023-04-03T17:42:25.164Z,3.22
2023-04-03T17:44:28.000Z,3.25
2023-04-03T17:46:31.447Z,2.60
2023-04-03T17:48:37.719Z,3.95
2023-04-03T17:50:40.436Z,2.45
2023-04-03T17:52:43.501Z,2.78
2023-04-03T17:54:46.738Z,2.53
2023-04-03T17:56:49.514Z,3.42
2023-04-03T17:58:52.454Z,3.25
2023-04-03T18:00:56.472Z,2.72
2023-04-03T18:02:59.457Z,3.10
2023-04-03T18:05:02.237Z,3.35
2023-04-03T18:07:09.894Z,3.58
2023-04-03T18:09:15.971Z,4.28
2023-04-03T18:11:22.028Z,3.58
2023-04-03T18:13:24.742Z,4.10
2023-04-03T18:15:27.642Z,2.85
2023-04-03T18:17:30.682Z,4.30
2023-04-03T18:19:34.307Z,4.28
2023-04-03T18:21:37.516Z,3.13
2023-04-03T18:23:43.462Z,3.83
2023-04-03T18:25:46.476Z,3.28
2023-04-03T18:27:49.835Z,3.55
2023-04-03T18:30:02.976Z,2.67
2023-04-03T18:32:08.198Z,3.97
2023-04-03T18:34:12.945Z,4.45
2023-04-03T18:38:19.273Z,3.45
2023-04-03T18:40:22.838Z,4.05
2023-04-03T18:42:27.226Z,3.53
2023-04-03T18:44:32.481Z,3.45
2023-04-03T18:48:41.984Z,4.07
2023-04-03T18:50:45.694Z,3.40
2023-04-03T18:52:50.844Z,3.00
2023-04-03T18:54:53.659Z,4.50
2023-04-03T18:56:56.322Z,2.78
2023-04-03T18:58:59.331Z,3.92
2023-04-03T19:01:02.301Z,3.30
2023-04-03T19:03:06.180Z,3.85
2023-04-03T19:05:13.368Z,4.78
2023-04-03T19:07:16.388Z,3.90
2023-04-03T19:09:19.959Z,3.83
2023-04-03T19:11:23.306Z,3.92
2023-04-03T19:13:28.253Z,3.05
2023-04-03T19:15:32.201Z,3.80
2023-04-03T19:17:34.931Z,3.17
2023-04-03T19:19:38.305Z,3.10
2023-04-03T19:21:42.264Z,3.25
2023-04-03T19:23:45.205Z,3.53
2023-04-03T19:25:48.507Z,2.78
2023-04-03T19:27:51.729Z,3.42
2023-04-03T19:29:54.592Z,2.75
2023-04-03T19:31:57.816Z,2.60
2023-04-03T19:34:01.273Z,3.08
2023-04-03T19:36:08.139Z,3.95
2023-04-03T19:38:10.840Z,2.88
2023-04-03T19:40:14.567Z,3.65
2023-04-03T19:42:19.063Z,2.53
2023-04-03T19:44:21.696Z,3.45
2023-04-03T19:46:28.141Z,2.38
2023-04-03T19:48:32.922Z,2.60
2023-04-03T19:50:36.107Z,2.30
2023-04-03T19:52:39.180Z,2.92
2023-04-03T19:54:42.123Z,3.20
2023-04-03T19:56:45.796Z,3.75
2023-04-03T19:58:54.457Z,3.42
2023-04-03T20:00:58.714Z,3.58
2023-04-03T20:03:01.911Z,1.95
2023-04-03T20:05:05.443Z,2.38
2023-04-03T20:07:08.128Z,2.83
2023-04-03T20:09:11.360Z,2.40
2023-04-03T20:11:14.412Z,2.88
2023-04-03T20:13:17.206Z,2.50
2023-04-03T20:15:20.137Z,2.53
2023-04-03T20:17:22.881Z,2.20
2023-04-03T20:19:27.102Z,2.58
2023-04-03T20:21:34.343Z,2.53
2023-04-03T20:23:37.618Z,2.95
2023-04-03T20:25:54.082Z,2.70
2023-04-03T20:28:00.624Z,1.63
2023-04-03T20:30:04.885Z,2.45
2023-04-03T20:32:07.603Z,2.10
2023-04-03T20:34:10.361Z,2.90
2023-04-03T20:36:13.012Z,1.75
2023-04-03T20:38:16.658Z,2.67
2023-04-03T20:40:19.306Z,2.30
2023-04-03T20:42:22.151Z,2.65
2023-04-03T20:44:25.100Z,2.17
2023-04-03T20:46:42.290Z,2.10
2023-04-03T20:48:52.926Z,2.53
2023-04-03T20:50:56.054Z,2.53
2023-04-03T20:52:59.092Z,2.17
2023-04-03T20:55:01.720Z,1.73
2023-04-03T20:57:06.135Z,1.98
2023-04-03T20:59:10.427Z,2.03
2023-04-03T21:01:16.282Z,2.67
2023-04-03T21:03:19.587Z,2.10
2023-04-03T21:05:23.673Z,1.95
2023-04-03T21:08:04.566Z,2.15
2023-04-03T21:10:44.631Z,1.92
2023-04-03T21:13:24.580Z,2.40
2023-04-03T21:15:55.460Z,2.22
2023-04-03T21:18:21.360Z,2.25
2023-04-03T21:20:24.004Z,2.15
2023-04-03T21:22:27.260Z,1.40
2023-04-03T21:24:31.564Z,3.08
2023-04-03T21:26:34.637Z,1.70
2023-04-03T21:28:37.367Z,3.08
2023-04-03T21:30:40.269Z,2.25
2023-04-03T21:32:43.325Z,1.70
2023-04-03T21:34:46.593Z,1.58
2023-04-03T21:36:52.915Z,1.70
2023-04-03T21:38:58.215Z,2.45
2023-04-03T21:41:01.096Z,2.15
2023-04-03T21:43:05.310Z,1.65
2023-04-03T21:45:08.426Z,1.55
2023-04-03T21:47:11.744Z,2.17
2023-04-03T21:49:14.666Z,3.22
2023-04-03T21:51:20.129Z,1.83
2023-04-03T21:53:23.752Z,1.40
2023-04-03T21:55:27.162Z,1.67
2023-04-03T21:57:29.863Z,2.25
2023-04-03T21:59:32.719Z,1.92
2023-04-03T22:01:36.311Z,1.85
2023-04-03T22:03:39.443Z,2.00
2023-04-03T22:05:42.107Z,1.58
2023-04-03T22:07:47.978Z,1.55
2023-04-03T22:09:50.949Z,1.98
2023-04-03T22:11:53.589Z,1.95
2023-04-03T22:13:56.423Z,1.45
2023-04-03T22:15:59.709Z,1.90
2023-04-03T22:18:02.480Z,1.75
2023-04-03T22:20:05.777Z,1.48
2023-04-03T22:22:09.025Z,1.80
2023-04-03T22:24:11.716Z,2.00
2023-04-03T22:26:14.613Z,1.80
2023-04-03T22:28:17.420Z,2.55
2023-04-03T22:30:20.106Z,3.25
2023-04-03T22:32:22.877Z,2.20
2023-04-03T22:34:25.650Z,1.77
2023-04-03T22:36:28.387Z,2.17
2023-04-03T22:38:31.359Z,3.08
2023-04-03T22:40:34.006Z,2.92
2023-04-03T22:42:36.582Z,2.75
2023-04-03T22:44:39.790Z,2.17
2023-04-03T22:46:42.506Z,2.33
2023-04-03T22:48:48.587Z,1.55
2023-04-03T22:50:51.820Z,2.50
2023-04-03T22:52:54.483Z,2.78
2023-04-03T22:55:01.378Z,2.42
2023-04-03T22:59:13.291Z,3.38
2023-04-03T23:01:16.422Z,1.58
2023-04-03T23:03:19.737Z,3.40
2023-04-03T23:05:22.385Z,3.75
2023-04-03T23:07:24.976Z,1.90
2023-04-03T23:09:27.579Z,1.55
2023-04-03T23:11:30.353Z,2.25
2023-04-03T23:13:33.100Z,2.22
2023-04-03T23:15:35.971Z,2.30
2023-04-03T23:17:39.553Z,2.75
2023-04-03T23:19:42.698Z,2.13
2023-04-03T23:21:45.988Z,2.70
2023-04-03T23:23:48.596Z,2.00
2023-04-03T23:25:59.672Z,1.95
2023-04-03T23:28:02.473Z,1.33
2023-04-03T23:30:07.648Z,1.67
2023-04-03T23:32:10.937Z,1.75
2023-04-03T23:34:13.824Z,2.15
2023-04-03T23:36:17.074Z,2.22
2023-04-03T23:38:19.662Z,2.45
2023-04-03T23:40:22.318Z,1.90
2023-04-03T23:42:24.934Z,2.10
2023-04-03T23:44:27.631Z,1.35
2023-04-03T23:46:30.378Z,2.30
2023-04-03T23:48:33.095Z,1.85
2023-04-03T23:50:35.804Z,3.33
2023-04-03T23:52:38.488Z,2.85
2023-04-03T23:54:41.101Z,2.95
2023-04-03T23:56:43.670Z,2.05
2023-04-03T23:58:46.516Z,2.22
